sensor_id;sensor_type;location;lat;lon;timestamp;temperature;humidity
12481;DHT22;6305;48.398;11.762;2023-11-18T00:02:24;4.40;99.90
12481;DHT22;6305;48.398;11.762;2023-11-18T00:04:51;4.40;99.90
12481;DHT22;6305;48.398;11.762;2023-11-18T00:07:20;4.40;99.90
12481;DHT22;6305;48.398;11.762;2023-11-18T00:09:47;4.40;99.90
12481;DHT22;6305;48.398;11.762;2023-11-18T00:12:14;4.40;99.90
12481;DHT22;6305;48.398;11.762;2023-11-18T00:14:49;4.40;99.90
12481;DHT22;6305;48.398;11.762;2023-11-18T00:17:16;4.40;99.90
12481;DHT22;6305;48.398;11.762;2023-11-18T00:19:49;4.50;99.90
12481;DHT22;6305;48.398;11.762;2023-11-18T00:22:17;4.50;99.90
12481;DHT22;6305;48.398;11.762;2023-11-18T00:24:46;4.40;99.90
12481;DHT22;6305;48.398;11.762;2023-11-18T00:27:15;4.50;99.90
12481;DHT22;6305;48.398;11.762;2023-11-18T00:29:43;4.50;99.90
12481;DHT22;6305;48.398;11.762;2023-11-18T00:32:10;4.50;99.90
12481;DHT22;6305;48.398;11.762;2023-11-18T00:34:38;4.50;99.90
12481;DHT22;6305;48.398;11.762;2023-11-18T00:37:05;4.50;99.90
12481;DHT22;6305;48.398;11.762;2023-11-18T00:39:33;4.50;99.90
12481;DHT22;6305;48.398;11.762;2023-11-18T00:42:02;4.50;99.90
12481;DHT22;6305;48.398;11.762;2023-11-18T00:44:29;4.50;99.90
12481;DHT22;6305;48.398;11.762;2023-11-18T00:46:56;4.50;99.90
12481;DHT22;6305;48.398;11.762;2023-11-18T00:49:23;4.50;99.90
12481;DHT22;6305;48.398;11.762;2023-11-18T00:51:51;4.50;99.90
12481;DHT22;6305;48.398;11.762;2023-11-18T00:54:19;4.50;99.90
12481;DHT22;6305;48.398;11.762;2023-11-18T00:56:46;4.50;99.90
12481;DHT22;6305;48.398;11.762;2023-11-18T00:59:14;4.50;99.90
12481;DHT22;6305;48.398;11.762;2023-11-18T01:01:41;4.50;99.90
12481;DHT22;6305;48.398;11.762;2023-11-18T01:04:09;4.50;99.90
12481;DHT22;6305;48.398;11.762;2023-11-18T01:06:37;4.50;99.90
12481;DHT22;6305;48.398;11.762;2023-11-18T01:09:04;4.50;99.90
12481;DHT22;6305;48.398;11.762;2023-11-18T01:11:33;4.50;99.90
12481;DHT22;6305;48.398;11.762;2023-11-18T01:14:01;4.50;99.90
12481;DHT22;6305;48.398;11.762;2023-11-18T01:16:30;4.40;99.90
12481;DHT22;6305;48.398;11.762;2023-11-18T01:18:57;4.40;99.90
12481;DHT22;6305;48.398;11.762;2023-11-18T01:21:25;4.50;99.90
12481;DHT22;6305;48.398;11.762;2023-11-18T01:23:53;4.50;99.90
12481;DHT22;6305;48.398;11.762;2023-11-18T01:26:21;4.50;99.90
12481;DHT22;6305;48.398;11.762;2023-11-18T01:28:51;4.50;99.90
12481;DHT22;6305;48.398;11.762;2023-11-18T01:31:19;4.50;99.90
12481;DHT22;6305;48.398;11.762;2023-11-18T01:33:47;4.40;99.90
12481;DHT22;6305;48.398;11.762;2023-11-18T01:36:16;4.50;99.90
12481;DHT22;6305;48.398;11.762;2023-11-18T01:38:44;4.40;99.90
12481;DHT22;6305;48.398;11.762;2023-11-18T01:41:12;4.50;99.90
12481;DHT22;6305;48.398;11.762;2023-11-18T01:43:39;4.50;99.90
12481;DHT22;6305;48.398;11.762;2023-11-18T01:46:09;4.50;99.90
12481;DHT22;6305;48.398;11.762;2023-11-18T01:48:40;4.40;99.90
12481;DHT22;6305;48.398;11.762;2023-11-18T01:51:10;4.40;99.90
12481;DHT22;6305;48.398;11.762;2023-11-18T01:53:38;4.40;99.90
12481;DHT22;6305;48.398;11.762;2023-11-18T01:56:06;4.40;99.90
12481;DHT22;6305;48.398;11.762;2023-11-18T01:58:34;4.40;99.90
12481;DHT22;6305;48.398;11.762;2023-11-18T02:01:03;4.40;99.90
12481;DHT22;6305;48.398;11.762;2023-11-18T02:03:34;4.40;99.90
12481;DHT22;6305;48.398;11.762;2023-11-18T02:06:03;4.30;99.90
12481;DHT22;6305;48.398;11.762;2023-11-18T02:08:33;4.40;99.90
12481;DHT22;6305;48.398;11.762;2023-11-18T02:11:13;4.30;99.90
12481;DHT22;6305;48.398;11.762;2023-11-18T02:13:43;4.30;99.90
12481;DHT22;6305;48.398;11.762;2023-11-18T02:16:15;4.30;99.90
12481;DHT22;6305;48.398;11.762;2023-11-18T02:18:43;4.30;99.90
12481;DHT22;6305;48.398;11.762;2023-11-18T02:21:12;4.30;99.90
12481;DHT22;6305;48.398;11.762;2023-11-18T02:23:42;4.40;99.90
12481;DHT22;6305;48.398;11.762;2023-11-18T02:26:11;4.40;99.90
12481;DHT22;6305;48.398;11.762;2023-11-18T02:28:38;4.40;99.90
12481;DHT22;6305;48.398;11.762;2023-11-18T02:31:09;4.40;99.90
12481;DHT22;6305;48.398;11.762;2023-11-18T02:33:47;4.40;99.90
12481;DHT22;6305;48.398;11.762;2023-11-18T02:36:23;4.40;99.90
12481;DHT22;6305;48.398;11.762;2023-11-18T02:38:51;4.40;99.90
12481;DHT22;6305;48.398;11.762;2023-11-18T02:41:22;4.40;99.90
12481;DHT22;6305;48.398;11.762;2023-11-18T02:43:55;4.40;99.90
12481;DHT22;6305;48.398;11.762;2023-11-18T02:46:24;4.40;99.90
12481;DHT22;6305;48.398;11.762;2023-11-18T02:48:53;4.40;99.90
12481;DHT22;6305;48.398;11.762;2023-11-18T02:51:21;4.40;99.90
12481;DHT22;6305;48.398;11.762;2023-11-18T02:53:48;4.40;99.90
12481;DHT22;6305;48.398;11.762;2023-11-18T02:56:15;4.40;99.90
12481;DHT22;6305;48.398;11.762;2023-11-18T02:58:46;4.30;99.90
12481;DHT22;6305;48.398;11.762;2023-11-18T03:01:13;4.30;99.90
12481;DHT22;6305;48.398;11.762;2023-11-18T03:03:41;4.30;99.90
12481;DHT22;6305;48.398;11.762;2023-11-18T03:06:09;4.30;99.90
12481;DHT22;6305;48.398;11.762;2023-11-18T03:08:37;4.30;99.90
12481;DHT22;6305;48.398;11.762;2023-11-18T03:11:07;4.30;99.90
12481;DHT22;6305;48.398;11.762;2023-11-18T03:13:37;4.30;99.90
12481;DHT22;6305;48.398;11.762;2023-11-18T03:16:08;4.30;99.90
12481;DHT22;6305;48.398;11.762;2023-11-18T03:18:39;4.20;99.90
12481;DHT22;6305;48.398;11.762;2023-11-18T03:21:10;4.30;99.90
12481;DHT22;6305;48.398;11.762;2023-11-18T03:23:38;4.30;99.90
12481;DHT22;6305;48.398;11.762;2023-11-18T03:26:06;4.20;99.90
12481;DHT22;6305;48.398;11.762;2023-11-18T03:28:34;4.20;99.90
12481;DHT22;6305;48.398;11.762;2023-11-18T03:31:02;4.20;99.90
12481;DHT22;6305;48.398;11.762;2023-11-18T03:33:31;4.20;99.90
12481;DHT22;6305;48.398;11.762;2023-11-18T03:35:59;4.20;99.90
12481;DHT22;6305;48.398;11.762;2023-11-18T03:38:26;4.20;99.90
12481;DHT22;6305;48.398;11.762;2023-11-18T03:40:54;4.10;99.90
12481;DHT22;6305;48.398;11.762;2023-11-18T03:43:24;4.10;99.90
12481;DHT22;6305;48.398;11.762;2023-11-18T03:45:51;4.00;99.90
12481;DHT22;6305;48.398;11.762;2023-11-18T03:48:22;4.10;99.90
12481;DHT22;6305;48.398;11.762;2023-11-18T03:50:51;4.10;99.90
12481;DHT22;6305;48.398;11.762;2023-11-18T03:53:19;4.00;99.90
12481;DHT22;6305;48.398;11.762;2023-11-18T03:55:46;4.00;99.90
12481;DHT22;6305;48.398;11.762;2023-11-18T03:58:13;4.00;99.90
12481;DHT22;6305;48.398;11.762;2023-11-18T04:00:41;4.10;99.90
12481;DHT22;6305;48.398;11.762;2023-11-18T04:03:08;4.00;99.90
12481;DHT22;6305;48.398;11.762;2023-11-18T04:05:35;4.00;99.90
12481;DHT22;6305;48.398;11.762;2023-11-18T04:08:04;4.00;99.90
12481;DHT22;6305;48.398;11.762;2023-11-18T04:10:32;4.00;99.90
12481;DHT22;6305;48.398;11.762;2023-11-18T04:12:59;4.00;99.90
12481;DHT22;6305;48.398;11.762;2023-11-18T04:15:27;4.00;99.90
12481;DHT22;6305;48.398;11.762;2023-11-18T04:17:54;4.00;99.90
12481;DHT22;6305;48.398;11.762;2023-11-18T04:20:21;3.90;99.90
12481;DHT22;6305;48.398;11.762;2023-11-18T04:22:49;3.90;99.90
12481;DHT22;6305;48.398;11.762;2023-11-18T04:25:17;3.90;99.90
12481;DHT22;6305;48.398;11.762;2023-11-18T04:27:45;3.90;99.90
12481;DHT22;6305;48.398;11.762;2023-11-18T04:30:12;3.90;99.90
12481;DHT22;6305;48.398;11.762;2023-11-18T04:32:40;3.90;99.90
12481;DHT22;6305;48.398;11.762;2023-11-18T04:35:09;3.90;99.90
12481;DHT22;6305;48.398;11.762;2023-11-18T04:37:37;3.90;99.90
12481;DHT22;6305;48.398;11.762;2023-11-18T04:40:09;3.90;99.90
12481;DHT22;6305;48.398;11.762;2023-11-18T04:42:41;3.90;99.90
12481;DHT22;6305;48.398;11.762;2023-11-18T04:45:11;3.90;99.90
12481;DHT22;6305;48.398;11.762;2023-11-18T04:47:40;3.90;99.90
12481;DHT22;6305;48.398;11.762;2023-11-18T04:50:09;3.90;99.90
12481;DHT22;6305;48.398;11.762;2023-11-18T04:52:37;3.90;99.90
12481;DHT22;6305;48.398;11.762;2023-11-18T04:55:05;3.90;99.90
12481;DHT22;6305;48.398;11.762;2023-11-18T04:57:32;3.90;99.90
12481;DHT22;6305;48.398;11.762;2023-11-18T05:00:01;3.90;99.90
12481;DHT22;6305;48.398;11.762;2023-11-18T05:02:36;3.90;99.90
12481;DHT22;6305;48.398;11.762;2023-11-18T05:05:04;3.80;99.90
12481;DHT22;6305;48.398;11.762;2023-11-18T05:07:32;3.90;99.90
12481;DHT22;6305;48.398;11.762;2023-11-18T05:10:00;3.80;99.90
12481;DHT22;6305;48.398;11.762;2023-11-18T05:12:28;3.90;99.90
12481;DHT22;6305;48.398;11.762;2023-11-18T05:14:55;3.80;99.90
12481;DHT22;6305;48.398;11.762;2023-11-18T05:17:24;3.80;99.90
12481;DHT22;6305;48.398;11.762;2023-11-18T05:19:52;3.80;99.90
12481;DHT22;6305;48.398;11.762;2023-11-18T05:22:19;3.80;99.90
12481;DHT22;6305;48.398;11.762;2023-11-18T05:24:46;3.80;99.90
12481;DHT22;6305;48.398;11.762;2023-11-18T05:27:15;3.80;99.90
12481;DHT22;6305;48.398;11.762;2023-11-18T05:29:43;3.80;99.90
12481;DHT22;6305;48.398;11.762;2023-11-18T05:32:14;3.80;99.90
12481;DHT22;6305;48.398;11.762;2023-11-18T05:34:43;3.80;99.90
12481;DHT22;6305;48.398;11.762;2023-11-18T05:37:09;3.80;99.90
12481;DHT22;6305;48.398;11.762;2023-11-18T05:39:37;3.80;99.90
12481;DHT22;6305;48.398;11.762;2023-11-18T05:42:08;3.80;99.90
12481;DHT22;6305;48.398;11.762;2023-11-18T05:44:36;3.80;99.90
12481;DHT22;6305;48.398;11.762;2023-11-18T05:47:05;3.80;99.90
12481;DHT22;6305;48.398;11.762;2023-11-18T05:49:32;3.70;99.90
12481;DHT22;6305;48.398;11.762;2023-11-18T05:52:01;3.70;99.90
12481;DHT22;6305;48.398;11.762;2023-11-18T05:54:28;3.70;99.90
12481;DHT22;6305;48.398;11.762;2023-11-18T05:56:56;3.70;99.90
12481;DHT22;6305;48.398;11.762;2023-11-18T05:59:25;3.70;99.90
12481;DHT22;6305;48.398;11.762;2023-11-18T06:01:52;3.70;99.90
12481;DHT22;6305;48.398;11.762;2023-11-18T06:04:19;3.80;99.90
12481;DHT22;6305;48.398;11.762;2023-11-18T06:06:47;3.80;99.90
12481;DHT22;6305;48.398;11.762;2023-11-18T06:09:15;3.70;99.90
12481;DHT22;6305;48.398;11.762;2023-11-18T06:11:46;3.80;99.90
12481;DHT22;6305;48.398;11.762;2023-11-18T06:14:15;3.80;99.90
12481;DHT22;6305;48.398;11.762;2023-11-18T06:16:43;3.80;99.90
12481;DHT22;6305;48.398;11.762;2023-11-18T06:19:10;3.80;99.90
12481;DHT22;6305;48.398;11.762;2023-11-18T06:21:37;3.80;99.90
12481;DHT22;6305;48.398;11.762;2023-11-18T06:24:05;3.80;99.90
12481;DHT22;6305;48.398;11.762;2023-11-18T06:26:34;3.90;99.90
12481;DHT22;6305;48.398;11.762;2023-11-18T06:29:03;3.80;99.90
12481;DHT22;6305;48.398;11.762;2023-11-18T06:31:31;3.90;99.90
12481;DHT22;6305;48.398;11.762;2023-11-18T06:33:58;3.90;99.90
12481;DHT22;6305;48.398;11.762;2023-11-18T06:36:25;3.90;99.90
12481;DHT22;6305;48.398;11.762;2023-11-18T06:38:54;3.90;99.90
12481;DHT22;6305;48.398;11.762;2023-11-18T06:41:22;3.90;99.90
12481;DHT22;6305;48.398;11.762;2023-11-18T06:43:53;3.90;99.90
12481;DHT22;6305;48.398;11.762;2023-11-18T06:46:27;4.00;99.90
12481;DHT22;6305;48.398;11.762;2023-11-18T06:48:58;3.90;99.90
12481;DHT22;6305;48.398;11.762;2023-11-18T06:51:26;4.00;99.90
12481;DHT22;6305;48.398;11.762;2023-11-18T06:53:53;4.00;99.90
12481;DHT22;6305;48.398;11.762;2023-11-18T06:56:22;4.00;99.90
12481;DHT22;6305;48.398;11.762;2023-11-18T06:58:49;4.00;99.90
12481;DHT22;6305;48.398;11.762;2023-11-18T07:01:18;4.00;99.90
12481;DHT22;6305;48.398;11.762;2023-11-18T07:03:48;4.00;99.90
12481;DHT22;6305;48.398;11.762;2023-11-18T07:06:18;4.00;99.90
12481;DHT22;6305;48.398;11.762;2023-11-18T07:08:47;4.00;99.90
12481;DHT22;6305;48.398;11.762;2023-11-18T07:11:16;4.10;99.90
12481;DHT22;6305;48.398;11.762;2023-11-18T07:13:43;4.10;99.90
12481;DHT22;6305;48.398;11.762;2023-11-18T07:16:10;4.10;99.90
12481;DHT22;6305;48.398;11.762;2023-11-18T07:18:39;4.20;99.90
12481;DHT22;6305;48.398;11.762;2023-11-18T07:21:07;4.20;99.90
12481;DHT22;6305;48.398;11.762;2023-11-18T07:23:35;4.30;99.90
12481;DHT22;6305;48.398;11.762;2023-11-18T07:26:03;4.40;99.90
12481;DHT22;6305;48.398;11.762;2023-11-18T07:28:30;4.40;99.90
12481;DHT22;6305;48.398;11.762;2023-11-18T07:30:57;4.50;99.90
12481;DHT22;6305;48.398;11.762;2023-11-18T07:33:25;4.60;99.90
12481;DHT22;6305;48.398;11.762;2023-11-18T07:35:54;4.70;99.90
12481;DHT22;6305;48.398;11.762;2023-11-18T07:38:23;4.70;99.90
12481;DHT22;6305;48.398;11.762;2023-11-18T07:40:52;4.80;99.90
12481;DHT22;6305;48.398;11.762;2023-11-18T07:43:22;4.90;99.90
12481;DHT22;6305;48.398;11.762;2023-11-18T07:45:49;5.00;99.90
12481;DHT22;6305;48.398;11.762;2023-11-18T07:48:19;5.10;99.90
12481;DHT22;6305;48.398;11.762;2023-11-18T07:50:46;5.20;99.90
12481;DHT22;6305;48.398;11.762;2023-11-18T07:53:15;5.20;99.90
12481;DHT22;6305;48.398;11.762;2023-11-18T07:55:42;5.30;99.90
12481;DHT22;6305;48.398;11.762;2023-11-18T07:58:11;5.30;99.90
12481;DHT22;6305;48.398;11.762;2023-11-18T08:00:38;5.30;99.90
12481;DHT22;6305;48.398;11.762;2023-11-18T08:03:06;5.30;99.90
12481;DHT22;6305;48.398;11.762;2023-11-18T08:05:37;5.40;99.90
12481;DHT22;6305;48.398;11.762;2023-11-18T08:08:05;5.40;99.90
12481;DHT22;6305;48.398;11.762;2023-11-18T08:10:34;5.40;99.90
12481;DHT22;6305;48.398;11.762;2023-11-18T08:13:04;5.50;99.90
12481;DHT22;6305;48.398;11.762;2023-11-18T08:15:32;5.50;99.90
12481;DHT22;6305;48.398;11.762;2023-11-18T08:18:00;5.60;99.90
12481;DHT22;6305;48.398;11.762;2023-11-18T08:20:29;5.70;99.90
12481;DHT22;6305;48.398;11.762;2023-11-18T08:22:58;5.80;99.90
12481;DHT22;6305;48.398;11.762;2023-11-18T08:25:26;5.90;99.90
12481;DHT22;6305;48.398;11.762;2023-11-18T08:27:54;5.90;99.90
12481;DHT22;6305;48.398;11.762;2023-11-18T08:30:22;6.10;99.90
12481;DHT22;6305;48.398;11.762;2023-11-18T08:32:49;6.30;99.90
12481;DHT22;6305;48.398;11.762;2023-11-18T08:35:17;6.40;99.90
12481;DHT22;6305;48.398;11.762;2023-11-18T08:37:44;6.40;99.90
12481;DHT22;6305;48.398;11.762;2023-11-18T08:40:13;6.30;99.90
12481;DHT22;6305;48.398;11.762;2023-11-18T08:42:43;6.40;99.90
12481;DHT22;6305;48.398;11.762;2023-11-18T08:45:16;6.40;99.90
12481;DHT22;6305;48.398;11.762;2023-11-18T08:47:43;6.40;99.90
12481;DHT22;6305;48.398;11.762;2023-11-18T08:50:13;6.30;99.90
12481;DHT22;6305;48.398;11.762;2023-11-18T08:52:40;6.40;99.90
12481;DHT22;6305;48.398;11.762;2023-11-18T08:55:10;6.60;99.90
12481;DHT22;6305;48.398;11.762;2023-11-18T08:57:45;6.80;99.90
12481;DHT22;6305;48.398;11.762;2023-11-18T09:00:20;7.00;99.90
12481;DHT22;6305;48.398;11.762;2023-11-18T09:03:01;7.20;99.90
12481;DHT22;6305;48.398;11.762;2023-11-18T09:05:32;7.50;99.90
12481;DHT22;6305;48.398;11.762;2023-11-18T09:08:01;7.70;99.90
12481;DHT22;6305;48.398;11.762;2023-11-18T09:10:31;8.00;99.90
12481;DHT22;6305;48.398;11.762;2023-11-18T09:12:59;8.10;99.90
12481;DHT22;6305;48.398;11.762;2023-11-18T09:15:31;8.00;99.90
12481;DHT22;6305;48.398;11.762;2023-11-18T09:17:58;8.00;99.90
12481;DHT22;6305;48.398;11.762;2023-11-18T09:20:25;8.00;99.90
12481;DHT22;6305;48.398;11.762;2023-11-18T09:22:54;8.10;99.90
12481;DHT22;6305;48.398;11.762;2023-11-18T09:25:22;8.20;99.90
12481;DHT22;6305;48.398;11.762;2023-11-18T09:27:49;8.10;99.90
12481;DHT22;6305;48.398;11.762;2023-11-18T09:30:19;8.20;99.90
12481;DHT22;6305;48.398;11.762;2023-11-18T09:32:48;8.30;99.90
12481;DHT22;6305;48.398;11.762;2023-11-18T09:35:15;8.70;99.90
12481;DHT22;6305;48.398;11.762;2023-11-18T09:37:43;9.50;99.90
12481;DHT22;6305;48.398;11.762;2023-11-18T09:40:13;9.90;99.90
12481;DHT22;6305;48.398;11.762;2023-11-18T09:42:41;9.80;99.90
12481;DHT22;6305;48.398;11.762;2023-11-18T09:45:10;10.20;99.90
12481;DHT22;6305;48.398;11.762;2023-11-18T09:47:42;10.50;99.90
12481;DHT22;6305;48.398;11.762;2023-11-18T09:50:17;12.20;99.90
12481;DHT22;6305;48.398;11.762;2023-11-18T09:52:54;14.90;99.90
12481;DHT22;6305;48.398;11.762;2023-11-18T09:55:36;17.70;98.90
12481;DHT22;6305;48.398;11.762;2023-11-18T09:58:12;18.20;83.60
12481;DHT22;6305;48.398;11.762;2023-11-18T10:00:57;16.70;78.20
12481;DHT22;6305;48.398;11.762;2023-11-18T10:03:30;15.20;84.80
12481;DHT22;6305;48.398;11.762;2023-11-18T10:06:09;14.40;92.40
12481;DHT22;6305;48.398;11.762;2023-11-18T10:08:41;14.70;94.40
12481;DHT22;6305;48.398;11.762;2023-11-18T10:11:12;14.60;94.30
12481;DHT22;6305;48.398;11.762;2023-11-18T10:13:40;13.90;95.60
12481;DHT22;6305;48.398;11.762;2023-11-18T10:16:10;13.40;97.90
12481;DHT22;6305;48.398;11.762;2023-11-18T10:18:38;13.20;99.90
12481;DHT22;6305;48.398;11.762;2023-11-18T10:21:16;13.10;99.90
12481;DHT22;6305;48.398;11.762;2023-11-18T10:24:00;13.20;99.90
12481;DHT22;6305;48.398;11.762;2023-11-18T10:26:28;13.90;99.90
12481;DHT22;6305;48.398;11.762;2023-11-18T10:29:03;16.40;99.90
12481;DHT22;6305;48.398;11.762;2023-11-18T10:31:33;17.80;82.30
12481;DHT22;6305;48.398;11.762;2023-11-18T10:34:01;19.40;81.20
12481;DHT22;6305;48.398;11.762;2023-11-18T10:36:31;21.00;74.50
12481;DHT22;6305;48.398;11.762;2023-11-18T10:39:01;23.20;66.50
12481;DHT22;6305;48.398;11.762;2023-11-18T10:41:40;23.00;55.00
12481;DHT22;6305;48.398;11.762;2023-11-18T10:44:09;21.60;52.70
12481;DHT22;6305;48.398;11.762;2023-11-18T10:46:41;21.20;54.70
12481;DHT22;6305;48.398;11.762;2023-11-18T10:49:08;22.40;56.40
12481;DHT22;6305;48.398;11.762;2023-11-18T10:51:37;22.80;51.50
12481;DHT22;6305;48.398;11.762;2023-11-18T10:54:06;23.00;50.50
12481;DHT22;6305;48.398;11.762;2023-11-18T10:56:46;22.70;51.60
12481;DHT22;6305;48.398;11.762;2023-11-18T10:59:14;23.20;51.00
12481;DHT22;6305;48.398;11.762;2023-11-18T11:01:42;21.80;48.20
12481;DHT22;6305;48.398;11.762;2023-11-18T11:04:11;19.20;48.90
12481;DHT22;6305;48.398;11.762;2023-11-18T11:06:43;17.10;52.80
12481;DHT22;6305;48.398;11.762;2023-11-18T11:09:18;15.90;55.50
12481;DHT22;6305;48.398;11.762;2023-11-18T11:11:48;14.50;58.90
12481;DHT22;6305;48.398;11.762;2023-11-18T11:14:20;13.40;64.10
12481;DHT22;6305;48.398;11.762;2023-11-18T11:16:51;13.40;71.40
12481;DHT22;6305;48.398;11.762;2023-11-18T11:19:24;13.00;74.30
12481;DHT22;6305;48.398;11.762;2023-11-18T11:22:05;12.50;79.00
12481;DHT22;6305;48.398;11.762;2023-11-18T11:24:48;13.90;90.60
12481;DHT22;6305;48.398;11.762;2023-11-18T11:27:25;16.50;79.10
12481;DHT22;6305;48.398;11.762;2023-11-18T11:30:05;16.40;64.20
12481;DHT22;6305;48.398;11.762;2023-11-18T11:32:45;14.90;64.80
12481;DHT22;6305;48.398;11.762;2023-11-18T11:35:19;13.70;70.50
12481;DHT22;6305;48.398;11.762;2023-11-18T11:37:54;12.70;78.80
12481;DHT22;6305;48.398;11.762;2023-11-18T11:40:29;12.50;85.00
12481;DHT22;6305;48.398;11.762;2023-11-18T11:42:56;12.80;87.20
12481;DHT22;6305;48.398;11.762;2023-11-18T11:45:27;12.90;85.70
12481;DHT22;6305;48.398;11.762;2023-11-18T11:47:59;13.30;89.80
12481;DHT22;6305;48.398;11.762;2023-11-18T11:50:55;15.60;86.10
12481;DHT22;6305;48.398;11.762;2023-11-18T11:53:34;17.50;66.10
12481;DHT22;6305;48.398;11.762;2023-11-18T11:56:05;17.50;58.30
12481;DHT22;6305;48.398;11.762;2023-11-18T11:58:34;16.60;59.00
12481;DHT22;6305;48.398;11.762;2023-11-18T12:01:15;17.50;59.10
12481;DHT22;6305;48.398;11.762;2023-11-18T12:03:46;18.50;55.50
12481;DHT22;6305;48.398;11.762;2023-11-18T12:06:18;19.30;51.60
12481;DHT22;6305;48.398;11.762;2023-11-18T12:08:54;18.30;50.00
12481;DHT22;6305;48.398;11.762;2023-11-18T12:11:21;17.40;50.40
12481;DHT22;6305;48.398;11.762;2023-11-18T12:14:02;15.50;53.50
12481;DHT22;6305;48.398;11.762;2023-11-18T12:16:59;14.00;57.50
12481;DHT22;6305;48.398;11.762;2023-11-18T12:19:30;13.20;61.20
12481;DHT22;6305;48.398;11.762;2023-11-18T12:21:59;13.20;62.50
12481;DHT22;6305;48.398;11.762;2023-11-18T12:24:29;12.90;64.10
12481;DHT22;6305;48.398;11.762;2023-11-18T12:26:59;12.40;66.00
12481;DHT22;6305;48.398;11.762;2023-11-18T12:29:34;12.10;70.30
12481;DHT22;6305;48.398;11.762;2023-11-18T12:32:02;11.80;72.90
12481;DHT22;6305;48.398;11.762;2023-11-18T12:34:50;11.30;75.40
12481;DHT22;6305;48.398;11.762;2023-11-18T12:37:40;10.80;79.30
12481;DHT22;6305;48.398;11.762;2023-11-18T12:40:50;10.40;83.20
12481;DHT22;6305;48.398;11.762;2023-11-18T12:43:33;10.20;89.40
12481;DHT22;6305;48.398;11.762;2023-11-18T12:46:31;10.00;90.80
12481;DHT22;6305;48.398;11.762;2023-11-18T12:49:05;9.80;92.70
12481;DHT22;6305;48.398;11.762;2023-11-18T12:51:33;9.80;94.30
12481;DHT22;6305;48.398;11.762;2023-11-18T12:54:02;9.60;94.10
12481;DHT22;6305;48.398;11.762;2023-11-18T12:56:39;9.50;94.80
12481;DHT22;6305;48.398;11.762;2023-11-18T12:59:12;9.40;94.50
12481;DHT22;6305;48.398;11.762;2023-11-18T13:01:44;9.30;95.30
12481;DHT22;6305;48.398;11.762;2023-11-18T13:04:18;9.30;95.90
12481;DHT22;6305;48.398;11.762;2023-11-18T13:07:04;9.30;96.20
12481;DHT22;6305;48.398;11.762;2023-11-18T13:09:37;9.40;97.70
12481;DHT22;6305;48.398;11.762;2023-11-18T13:12:11;9.40;97.70
12481;DHT22;6305;48.398;11.762;2023-11-18T13:14:41;9.60;98.10
12481;DHT22;6305;48.398;11.762;2023-11-18T13:17:10;9.70;98.10
12481;DHT22;6305;48.398;11.762;2023-11-18T13:19:39;9.80;97.10
12481;DHT22;6305;48.398;11.762;2023-11-18T13:22:07;10.00;96.60
12481;DHT22;6305;48.398;11.762;2023-11-18T13:24:35;10.30;95.40
12481;DHT22;6305;48.398;11.762;2023-11-18T13:27:04;10.70;94.90
12481;DHT22;6305;48.398;11.762;2023-11-18T13:29:35;11.30;93.60
12481;DHT22;6305;48.398;11.762;2023-11-18T13:32:05;11.70;92.20
12481;DHT22;6305;48.398;11.762;2023-11-18T13:34:33;11.90;90.00
12481;DHT22;6305;48.398;11.762;2023-11-18T13:37:03;11.80;84.70
12481;DHT22;6305;48.398;11.762;2023-11-18T13:39:32;11.90;87.70
12481;DHT22;6305;48.398;11.762;2023-11-18T13:42:18;12.20;89.80
12481;DHT22;6305;48.398;11.762;2023-11-18T13:44:47;12.80;85.80
12481;DHT22;6305;48.398;11.762;2023-11-18T13:47:17;13.10;80.80
12481;DHT22;6305;48.398;11.762;2023-11-18T13:49:44;13.10;76.40
12481;DHT22;6305;48.398;11.762;2023-11-18T13:52:13;12.90;77.00
12481;DHT22;6305;48.398;11.762;2023-11-18T13:54:42;12.70;76.80
12481;DHT22;6305;48.398;11.762;2023-11-18T13:57:11;12.40;77.30
12481;DHT22;6305;48.398;11.762;2023-11-18T13:59:38;12.00;77.80
12481;DHT22;6305;48.398;11.762;2023-11-18T14:02:07;11.40;80.50
12481;DHT22;6305;48.398;11.762;2023-11-18T14:04:34;11.00;83.10
12481;DHT22;6305;48.398;11.762;2023-11-18T14:07:03;10.50;85.20
12481;DHT22;6305;48.398;11.762;2023-11-18T14:09:31;10.30;89.60
12481;DHT22;6305;48.398;11.762;2023-11-18T14:12:02;10.20;92.00
12481;DHT22;6305;48.398;11.762;2023-11-18T14:14:31;10.10;93.20
12481;DHT22;6305;48.398;11.762;2023-11-18T14:16:59;10.20;95.10
12481;DHT22;6305;48.398;11.762;2023-11-18T14:19:28;10.40;95.50
12481;DHT22;6305;48.398;11.762;2023-11-18T14:21:56;10.70;94.20
12481;DHT22;6305;48.398;11.762;2023-11-18T14:24:25;10.90;93.70
12481;DHT22;6305;48.398;11.762;2023-11-18T14:26:53;11.10;93.10
12481;DHT22;6305;48.398;11.762;2023-11-18T14:29:20;11.30;92.60
12481;DHT22;6305;48.398;11.762;2023-11-18T14:31:48;11.70;91.80
12481;DHT22;6305;48.398;11.762;2023-11-18T14:34:15;12.00;90.10
12481;DHT22;6305;48.398;11.762;2023-11-18T14:36:45;12.00;86.80
12481;DHT22;6305;48.398;11.762;2023-11-18T14:39:12;12.10;88.30
12481;DHT22;6305;48.398;11.762;2023-11-18T14:41:43;12.20;85.20
12481;DHT22;6305;48.398;11.762;2023-11-18T14:44:11;11.90;83.20
12481;DHT22;6305;48.398;11.762;2023-11-18T14:46:39;11.20;85.30
12481;DHT22;6305;48.398;11.762;2023-11-18T14:49:06;10.50;89.90
12481;DHT22;6305;48.398;11.762;2023-11-18T14:51:35;9.90;93.20
12481;DHT22;6305;48.398;11.762;2023-11-18T14:54:04;9.30;96.80
12481;DHT22;6305;48.398;11.762;2023-11-18T14:56:31;8.90;99.90
12481;DHT22;6305;48.398;11.762;2023-11-18T14:59:01;8.50;99.90
12481;DHT22;6305;48.398;11.762;2023-11-18T15:01:30;8.20;99.90
12481;DHT22;6305;48.398;11.762;2023-11-18T15:03:58;7.90;99.90
12481;DHT22;6305;48.398;11.762;2023-11-18T15:06:26;7.70;99.90
12481;DHT22;6305;48.398;11.762;2023-11-18T15:08:53;7.60;99.90
12481;DHT22;6305;48.398;11.762;2023-11-18T15:11:24;7.40;99.90
12481;DHT22;6305;48.398;11.762;2023-11-18T15:13:51;7.30;99.90
12481;DHT22;6305;48.398;11.762;2023-11-18T15:16:19;7.20;99.90
12481;DHT22;6305;48.398;11.762;2023-11-18T15:18:47;7.10;99.90
12481;DHT22;6305;48.398;11.762;2023-11-18T15:21:16;7.00;99.90
12481;DHT22;6305;48.398;11.762;2023-11-18T15:23:44;6.90;99.90
12481;DHT22;6305;48.398;11.762;2023-11-18T15:26:13;6.80;99.90
12481;DHT22;6305;48.398;11.762;2023-11-18T15:28:42;6.70;99.90
12481;DHT22;6305;48.398;11.762;2023-11-18T15:31:10;6.60;99.90
12481;DHT22;6305;48.398;11.762;2023-11-18T15:33:40;6.40;99.90
12481;DHT22;6305;48.398;11.762;2023-11-18T15:36:11;6.30;99.90
12481;DHT22;6305;48.398;11.762;2023-11-18T15:38:40;6.20;99.90
12481;DHT22;6305;48.398;11.762;2023-11-18T15:41:11;6.10;99.90
12481;DHT22;6305;48.398;11.762;2023-11-18T15:43:42;6.00;99.90
12481;DHT22;6305;48.398;11.762;2023-11-18T15:46:12;6.00;99.90
12481;DHT22;6305;48.398;11.762;2023-11-18T15:48:40;6.00;99.90
12481;DHT22;6305;48.398;11.762;2023-11-18T15:51:07;6.00;99.90
12481;DHT22;6305;48.398;11.762;2023-11-18T15:53:45;5.90;99.90
12481;DHT22;6305;48.398;11.762;2023-11-18T15:56:13;5.80;99.90
12481;DHT22;6305;48.398;11.762;2023-11-18T15:58:42;5.70;99.90
12481;DHT22;6305;48.398;11.762;2023-11-18T16:01:09;5.60;99.90